createdAt,value
2019-05-22T00:00:00.296Z,99.90
2019-05-22T00:02:39.015Z,99.90
2019-05-22T00:05:14.686Z,99.90
2019-05-22T00:07:50.511Z,99.90
2019-05-22T00:10:29.811Z,99.90
2019-05-22T00:13:06.264Z,99.90
2019-05-22T00:15:40.305Z,99.90
2019-05-22T00:18:14.848Z,99.90
2019-05-22T00:20:48.611Z,99.90
2019-05-22T00:23:22.055Z,99.90
2019-05-22T00:25:55.019Z,99.90
2019-05-22T00:28:30.484Z,99.90
2019-05-22T00:31:05.959Z,99.90
2019-05-22T00:33:39.246Z,99.90
2019-05-22T00:36:12.756Z,99.90
2019-05-22T00:38:47.652Z,99.90
2019-05-22T00:41:22.852Z,99.90
2019-05-22T00:43:56.597Z,99.90
2019-05-22T00:46:29.754Z,99.90
2019-05-22T00:49:03.981Z,99.90
2019-05-22T00:51:48.530Z,99.90
2019-05-22T00:54:42.948Z,99.90
2019-05-22T00:57:34.123Z,99.90
2019-05-22T01:00:27.215Z,99.90
2019-05-22T01:03:01.549Z,99.90
2019-05-22T01:05:36.564Z,99.90
2019-05-22T01:08:12.832Z,99.90
2019-05-22T01:10:49.741Z,99.90
2019-05-22T01:13:22.812Z,99.90
2019-05-22T01:15:57.765Z,99.90
2019-05-22T01:18:32.311Z,99.90
2019-05-22T01:21:07.072Z,99.90
2019-05-22T01:23:42.347Z,99.90
2019-05-22T01:26:18.582Z,99.90
2019-05-22T01:28:52.744Z,99.90
2019-05-22T01:31:30.262Z,99.90
2019-05-22T01:34:10.351Z,99.90
2019-05-22T01:36:50.082Z,99.90
2019-05-22T01:39:47.122Z,99.90
2019-05-22T01:42:27.600Z,99.90
2019-05-22T01:45:06.507Z,99.90
2019-05-22T01:48:04.682Z,99.90
2019-05-22T01:50:43.323Z,99.90
2019-05-22T01:53:20.151Z,99.90
2019-05-22T01:56:00.797Z,99.90
2019-05-22T01:58:34.206Z,99.90
2019-05-22T02:01:13.965Z,99.90
2019-05-22T02:03:47.123Z,99.90
2019-05-22T02:06:23.126Z,99.90
2019-05-22T02:09:15.556Z,99.90
2019-05-22T02:11:53.643Z,99.90
2019-05-22T02:14:26.876Z,99.90
2019-05-22T02:17:00.689Z,99.90
2019-05-22T02:19:35.675Z,99.90
2019-05-22T02:22:10.479Z,99.90
2019-05-22T02:24:45.992Z,99.90
2019-05-22T02:27:20.592Z,99.90
2019-05-22T02:29:54.878Z,99.90
2019-05-22T02:32:28.658Z,99.90
2019-05-22T02:35:02.252Z,99.90
2019-05-22T02:37:36.012Z,99.90
2019-05-22T02:40:18.758Z,99.90
2019-05-22T02:42:52.777Z,99.90
2019-05-22T02:45:26.508Z,99.90
2019-05-22T02:48:01.640Z,99.90
2019-05-22T02:50:34.392Z,99.90
2019-05-22T02:53:11.145Z,99.90
2019-05-22T02:55:44.174Z,99.90
2019-05-22T02:58:20.528Z,99.90
2019-05-22T03:00:57.650Z,99.90
2019-05-22T03:03:33.144Z,99.90
2019-05-22T03:06:10.560Z,99.90
2019-05-22T03:09:12.725Z,99.90
2019-05-22T03:11:58.624Z,99.90
2019-05-22T03:14:33.955Z,99.90
2019-05-22T03:17:16.018Z,99.90
2019-05-22T03:19:50.639Z,99.90
2019-05-22T03:22:30.517Z,99.90
2019-05-22T03:25:08.400Z,99.90
2019-05-22T03:27:43.860Z,99.90
2019-05-22T03:30:24.877Z,99.90
2019-05-22T03:33:00.357Z,99.90
2019-05-22T03:35:40.204Z,99.90
2019-05-22T03:38:13.304Z,99.90
2019-05-22T03:40:47.200Z,99.90
2019-05-22T03:43:23.211Z,99.90
2019-05-22T03:46:00.072Z,99.90
2019-05-22T03:48:35.133Z,99.90
2019-05-22T03:51:11.972Z,99.90
2019-05-22T03:53:47.203Z,99.90
2019-05-22T03:56:21.698Z,99.90
2019-05-22T03:58:55.484Z,99.90
2019-05-22T04:01:28.492Z,99.90
2019-05-22T04:04:05.899Z,99.90
2019-05-22T04:06:40.707Z,99.90
2019-05-22T04:09:19.365Z,99.90
2019-05-22T04:11:52.567Z,99.90
2019-05-22T04:14:33.770Z,99.90
2019-05-22T04:17:09.635Z,99.90
2019-05-22T04:19:50.048Z,99.90
2019-05-22T04:22:21.901Z,99.90
2019-05-22T04:24:54.677Z,99.90
2019-05-22T04:27:29.614Z,99.90
2019-05-22T04:30:03.791Z,99.90
2019-05-22T04:32:37.250Z,99.90
2019-05-22T04:35:12.281Z,99.90
2019-05-22T04:37:48.379Z,99.90
2019-05-22T04:40:56.055Z,99.90
2019-05-22T04:43:33.323Z,99.90
2019-05-22T04:46:07.777Z,99.90
2019-05-22T04:48:46.075Z,99.90
2019-05-22T04:51:24.597Z,99.90
2019-05-22T04:53:59.197Z,99.90
2019-05-22T04:56:32.035Z,99.90
2019-05-22T04:59:04.805Z,99.90
2019-05-22T05:01:38.015Z,99.90
2019-05-22T05:04:11.060Z,99.90
2019-05-22T05:06:45.065Z,99.90
2019-05-22T05:09:18.318Z,99.90
2019-05-22T05:11:51.223Z,99.90
2019-05-22T05:14:27.001Z,99.90
2019-05-22T05:17:00.120Z,99.90
2019-05-22T05:19:32.837Z,99.90
2019-05-22T05:22:07.276Z,99.90
2019-05-22T05:24:39.834Z,99.90
2019-05-22T05:27:12.491Z,99.90
2019-05-22T05:29:45.053Z,99.90
2019-05-22T05:32:18.314Z,99.90
2019-05-22T05:34:59.279Z,99.90
2019-05-22T05:37:33.357Z,99.90
2019-05-22T05:40:32.918Z,99.90
2019-05-22T05:43:07.984Z,99.90
2019-05-22T05:45:43.269Z,99.90
2019-05-22T05:48:22.430Z,99.90
2019-05-22T05:51:23.125Z,99.90
2019-05-22T05:54:19.734Z,99.90
2019-05-22T05:56:54.745Z,99.90
2019-05-22T05:59:29.849Z,99.90
2019-05-22T06:02:05.206Z,99.90
2019-05-22T06:04:39.014Z,99.90
2019-05-22T06:07:25.965Z,99.90
2019-05-22T06:10:42.251Z,99.90
2019-05-22T06:13:15.000Z,99.90
2019-05-22T06:16:38.140Z,99.90
2019-05-22T06:19:11.190Z,99.90
2019-05-22T06:21:48.560Z,99.90
2019-05-22T06:24:24.645Z,99.90
2019-05-22T06:27:10.424Z,99.90
2019-05-22T06:29:52.719Z,99.90
2019-05-22T06:32:54.850Z,99.90
2019-05-22T06:35:34.699Z,99.90
2019-05-22T06:38:44.554Z,99.90
2019-05-22T06:41:19.977Z,99.90
2019-05-22T06:44:42.710Z,99.90
2019-05-22T06:50:21.166Z,99.90
2019-05-22T06:53:08.893Z,99.90
2019-05-22T06:55:28.463Z,99.90
2019-05-22T06:58:01.662Z,99.90
2019-05-22T07:00:34.670Z,99.90
2019-05-22T07:03:09.766Z,99.90
2019-05-22T07:05:43.850Z,99.90
2019-05-22T07:08:18.161Z,99.90
2019-05-22T07:10:51.057Z,99.90
2019-05-22T07:13:25.763Z,99.90
2019-05-22T07:16:01.541Z,99.90
2019-05-22T07:18:36.937Z,99.90
2019-05-22T07:21:09.847Z,99.90
2019-05-22T07:23:43.005Z,99.90
2019-05-22T07:26:16.045Z,99.90
2019-05-22T07:28:48.711Z,99.90
2019-05-22T07:31:22.093Z,99.90
2019-05-22T07:33:54.982Z,99.90
2019-05-22T07:36:29.855Z,99.90
2019-05-22T07:39:04.803Z,99.90
2019-05-22T07:41:37.512Z,99.90
2019-05-22T07:44:10.318Z,99.90
2019-05-22T07:46:43.231Z,99.90
2019-05-22T07:49:17.993Z,99.90
2019-05-22T07:51:58.942Z,99.90
2019-05-22T07:54:26.047Z,99.90
2019-05-22T07:56:59.768Z,99.90
2019-05-22T07:59:32.699Z,99.90
2019-05-22T08:02:08.073Z,99.90
2019-05-22T08:04:42.992Z,99.90
2019-05-22T08:07:18.171Z,99.90
2019-05-22T08:09:52.762Z,99.90
2019-05-22T08:12:26.007Z,99.90
2019-05-22T08:15:19.142Z,99.90
2019-05-22T08:17:51.962Z,99.90
2019-05-22T08:20:24.992Z,99.90
2019-05-22T08:22:59.212Z,99.90
2019-05-22T08:25:33.189Z,99.90
2019-05-22T08:28:06.788Z,99.90
2019-05-22T08:30:40.493Z,99.90
2019-05-22T08:33:15.344Z,99.90
2019-05-22T08:35:48.506Z,99.90
2019-05-22T08:38:29.114Z,99.90
2019-05-22T08:41:04.292Z,99.90
2019-05-22T08:44:03.318Z,99.90
2019-05-22T08:46:16.923Z,99.90
2019-05-22T08:48:50.641Z,99.90
2019-05-22T08:51:24.258Z,99.90
2019-05-22T08:53:58.086Z,99.90
2019-05-22T08:56:36.443Z,99.90
2019-05-22T08:59:19.512Z,99.90
2019-05-22T09:01:47.845Z,99.90
2019-05-22T09:04:20.597Z,99.90
2019-05-22T09:06:54.519Z,99.90
2019-05-22T09:09:27.355Z,99.90
2019-05-22T09:12:00.239Z,99.90
2019-05-22T09:14:33.617Z,99.90
2019-05-22T09:17:07.034Z,99.90
2019-05-22T09:19:40.108Z,99.90
2019-05-22T09:22:12.757Z,99.90
2019-05-22T09:24:47.179Z,99.90
2019-05-22T09:27:21.569Z,99.90
2019-05-22T09:29:54.311Z,99.90
2019-05-22T09:32:28.013Z,99.90
2019-05-22T09:35:00.858Z,99.90
2019-05-22T09:37:33.999Z,99.90
2019-05-22T09:40:06.978Z,99.90
2019-05-22T09:42:40.233Z,99.90
2019-05-22T09:45:13.245Z,99.90
2019-05-22T09:47:46.315Z,99.90
2019-05-22T09:50:20.770Z,99.90
2019-05-22T09:52:57.964Z,99.90
2019-05-22T09:55:30.313Z,99.90
2019-05-22T09:58:06.369Z,99.90
2019-05-22T10:00:39.213Z,99.90
2019-05-22T10:03:12.312Z,99.90
2019-05-22T10:05:45.824Z,99.90
2019-05-22T10:08:18.958Z,99.90
2019-05-22T10:10:51.953Z,99.90
2019-05-22T10:13:28.441Z,99.90
2019-05-22T10:16:00.208Z,99.90
2019-05-22T10:18:33.488Z,99.90
2019-05-22T10:21:06.885Z,99.90
2019-05-22T10:23:40.416Z,99.90
2019-05-22T10:26:13.517Z,99.90
2019-05-22T10:28:46.443Z,99.90
2019-05-22T10:31:21.736Z,99.90
2019-05-22T10:33:54.659Z,99.90
2019-05-22T10:36:27.799Z,99.90
2019-05-22T10:39:02.091Z,99.90
2019-05-22T10:41:36.575Z,99.90
2019-05-22T10:44:09.871Z,99.90
2019-05-22T10:46:43.460Z,99.90
2019-05-22T10:49:16.289Z,99.90
2019-05-22T10:51:52.248Z,99.90
2019-05-22T10:54:25.356Z,99.90
2019-05-22T10:56:58.294Z,99.90
2019-05-22T10:59:31.026Z,99.90
2019-05-22T11:02:05.823Z,99.90
2019-05-22T11:04:39.809Z,99.90
2019-05-22T11:07:13.476Z,99.90
2019-05-22T11:09:46.360Z,99.90
2019-05-22T11:12:19.167Z,99.90
2019-05-22T11:14:52.405Z,99.90
2019-05-22T11:17:26.208Z,99.90
2019-05-22T11:19:59.078Z,99.90
2019-05-22T11:22:34.873Z,99.90
2019-05-22T11:25:10.519Z,99.90
2019-05-22T11:27:44.730Z,99.90
2019-05-22T11:30:18.779Z,99.90
2019-05-22T11:32:52.852Z,99.90
2019-05-22T11:35:26.966Z,99.90
2019-05-22T11:38:00.168Z,99.90
2019-05-22T11:40:33.232Z,99.90
2019-05-22T11:43:06.025Z,99.90
2019-05-22T11:45:38.728Z,99.90
2019-05-22T11:48:11.438Z,99.90
2019-05-22T11:50:45.101Z,99.90
2019-05-22T11:53:18.063Z,99.90
2019-05-22T11:55:52.133Z,99.90
2019-05-22T11:58:24.986Z,99.90
2019-05-22T12:00:57.663Z,99.90
2019-05-22T12:03:31.827Z,99.90
2019-05-22T12:06:06.355Z,99.90
2019-05-22T12:08:39.921Z,99.90
2019-05-22T12:11:16.760Z,99.90
2019-05-22T12:13:49.474Z,99.90
2019-05-22T12:16:22.732Z,99.90
2019-05-22T12:18:58.739Z,99.90
2019-05-22T12:21:30.131Z,99.90
2019-05-22T12:24:04.580Z,99.90
2019-05-22T12:26:39.484Z,99.90
2019-05-22T12:29:12.364Z,99.90
2019-05-22T12:31:48.615Z,99.90
2019-05-22T12:34:21.875Z,99.90
2019-05-22T12:36:54.667Z,99.90
2019-05-22T12:39:27.568Z,99.90
2019-05-22T12:42:00.841Z,99.90
2019-05-22T12:44:34.120Z,99.90
2019-05-22T12:47:09.387Z,99.90
2019-05-22T12:49:46.346Z,99.90
2019-05-22T12:52:19.596Z,99.50
2019-05-22T12:54:54.578Z,97.40
2019-05-22T12:57:28.370Z,99.90
2019-05-22T13:00:02.957Z,99.90
2019-05-22T13:02:36.976Z,98.60
2019-05-22T13:05:14.051Z,95.70
2019-05-22T13:07:45.865Z,90.60
2019-05-22T13:10:20.219Z,90.80
2019-05-22T13:12:53.314Z,92.30
2019-05-22T13:15:27.347Z,91.40
2019-05-22T13:18:00.663Z,94.30
2019-05-22T13:20:42.318Z,94.60
2019-05-22T13:23:13.198Z,91.90
2019-05-22T13:25:46.247Z,96.00
2019-05-22T13:28:19.065Z,98.00
2019-05-22T13:30:54.823Z,92.40
2019-05-22T13:33:28.625Z,95.00
2019-05-22T13:36:05.307Z,96.80
2019-05-22T13:38:40.093Z,94.40
2019-05-22T13:41:13.474Z,96.10
2019-05-22T13:43:49.570Z,95.00
2019-05-22T13:46:25.191Z,95.10
2019-05-22T13:48:59.021Z,98.60
2019-05-22T13:51:33.232Z,97.60
2019-05-22T13:54:05.948Z,98.50
2019-05-22T13:56:39.557Z,99.90
2019-05-22T13:59:15.962Z,99.90
2019-05-22T14:01:49.860Z,99.90
2019-05-22T14:04:24.637Z,99.90
2019-05-22T14:06:58.246Z,99.90
2019-05-22T14:09:32.756Z,99.90
2019-05-22T14:12:07.456Z,99.90
2019-05-22T14:14:40.344Z,98.20
2019-05-22T14:17:15.980Z,94.80
2019-05-22T14:19:48.965Z,93.30
2019-05-22T14:22:21.726Z,92.70
2019-05-22T14:24:54.462Z,92.60
2019-05-22T14:27:27.316Z,90.70
2019-05-22T14:30:00.593Z,90.50
2019-05-22T14:32:33.905Z,81.00
2019-05-22T14:35:07.240Z,76.80
2019-05-22T14:37:40.980Z,72.30
2019-05-22T14:40:14.446Z,72.40
2019-05-22T14:42:49.766Z,70.10
2019-05-22T14:45:23.183Z,69.90
2019-05-22T14:47:55.767Z,63.30
2019-05-22T14:50:32.539Z,58.70
2019-05-22T14:53:03.637Z,57.20
2019-05-22T14:55:38.404Z,52.90
2019-05-22T14:58:12.028Z,54.30
2019-05-22T15:00:45.329Z,51.70
2019-05-22T15:03:19.072Z,53.10
2019-05-22T15:05:53.057Z,51.40
2019-05-22T15:08:25.887Z,53.70
2019-05-22T15:11:00.751Z,51.50
2019-05-22T15:13:33.678Z,53.50
2019-05-22T15:16:08.278Z,54.00
2019-05-22T15:18:41.179Z,54.70
2019-05-22T15:21:15.862Z,54.10
2019-05-22T15:23:50.403Z,53.70
2019-05-22T15:26:23.402Z,53.20
2019-05-22T15:28:56.707Z,53.40
2019-05-22T15:31:30.300Z,53.70
2019-05-22T15:34:05.676Z,53.60
2019-05-22T15:36:39.686Z,53.00
2019-05-22T15:39:16.897Z,54.50
2019-05-22T15:41:50.167Z,61.70
2019-05-22T15:44:24.171Z,68.00
2019-05-22T15:46:57.583Z,73.10
2019-05-22T15:49:31.097Z,67.80
2019-05-22T15:52:08.465Z,66.40
2019-05-22T15:54:43.468Z,67.10
2019-05-22T15:57:19.767Z,70.10
2019-05-22T15:59:53.345Z,67.50
2019-05-22T16:02:27.112Z,62.60
2019-05-22T16:05:00.641Z,58.40
2019-05-22T16:07:36.813Z,55.50
2019-05-22T16:10:11.517Z,56.00
2019-05-22T16:12:46.280Z,54.60
2019-05-22T16:15:21.435Z,56.70
2019-05-22T16:18:10.311Z,58.00
2019-05-22T16:20:32.287Z,56.10
2019-05-22T16:23:06.648Z,57.40
2019-05-22T16:25:40.359Z,57.10
2019-05-22T16:28:13.908Z,57.90
2019-05-22T16:30:47.228Z,56.20
2019-05-22T16:33:22.613Z,57.50
2019-05-22T16:35:55.736Z,58.80
2019-05-22T16:38:30.459Z,62.00
2019-05-22T16:41:03.668Z,68.00
2019-05-22T16:43:48.946Z,65.80
2019-05-22T16:46:16.016Z,62.50
2019-05-22T16:48:51.284Z,60.30
2019-05-22T16:51:25.868Z,58.20
2019-05-22T16:54:04.728Z,56.50
2019-05-22T16:56:39.920Z,59.60
2019-05-22T16:59:13.781Z,63.90
2019-05-22T17:01:58.868Z,58.50
2019-05-22T17:04:22.056Z,56.00
2019-05-22T17:06:55.610Z,59.70
2019-05-22T17:09:30.839Z,61.90
2019-05-22T17:12:07.421Z,64.20
2019-05-22T17:14:41.655Z,64.80
2019-05-22T17:17:18.398Z,65.00
2019-05-22T17:19:51.503Z,64.40
2019-05-22T17:24:51.157Z,65.90
2019-05-22T17:27:24.057Z,63.90
2019-05-22T17:29:57.372Z,64.30
2019-05-22T17:32:30.779Z,65.80
2019-05-22T17:35:04.909Z,71.30
2019-05-22T17:37:37.715Z,78.10
2019-05-22T17:40:12.754Z,80.90
2019-05-22T17:42:47.821Z,90.10
2019-05-22T17:45:25.159Z,90.90
2019-05-22T17:47:58.805Z,91.00
2019-05-22T17:50:33.824Z,91.60
2019-05-22T17:53:08.674Z,91.50
2019-05-22T17:55:41.656Z,93.60
2019-05-22T17:58:15.079Z,91.50
2019-05-22T18:00:50.066Z,91.80
2019-05-22T18:03:26.148Z,95.10
2019-05-22T18:05:59.409Z,95.20
2019-05-22T18:08:32.074Z,93.30
2019-05-22T18:11:07.773Z,95.80
2019-05-22T18:13:54.705Z,95.00
2019-05-22T18:16:30.435Z,98.90
2019-05-22T18:19:04.656Z,99.90
2019-05-22T18:21:37.746Z,98.80
2019-05-22T18:24:13.710Z,99.90
2019-05-22T18:26:48.229Z,99.90
2019-05-22T18:29:20.886Z,99.90
2019-05-22T18:31:54.004Z,99.90
2019-05-22T18:34:26.916Z,99.90
2019-05-22T18:36:59.639Z,99.90
2019-05-22T18:39:32.616Z,99.90
2019-05-22T18:42:07.408Z,99.90
2019-05-22T18:44:41.345Z,99.90
2019-05-22T18:47:15.624Z,99.90
2019-05-22T18:49:49.307Z,99.90
2019-05-22T18:52:22.361Z,99.90
2019-05-22T18:54:56.109Z,99.90
2019-05-22T18:57:29.083Z,99.90
2019-05-22T19:00:05.486Z,99.90
2019-05-22T19:02:39.145Z,99.90
2019-05-22T19:05:11.923Z,99.90
2019-05-22T19:07:45.142Z,99.90
2019-05-22T19:10:20.079Z,99.90
2019-05-22T19:12:53.312Z,99.90
2019-05-22T19:15:26.739Z,99.90
2019-05-22T19:18:00.747Z,99.90
2019-05-22T19:20:33.953Z,99.90
2019-05-22T19:23:07.297Z,99.90
2019-05-22T19:25:40.316Z,99.90
2019-05-22T19:28:13.302Z,99.90
2019-05-22T19:30:46.298Z,99.90
2019-05-22T19:33:19.527Z,99.90
2019-05-22T19:35:53.609Z,99.90
2019-05-22T19:38:26.626Z,99.90
2019-05-22T19:41:00.792Z,99.90
2019-05-22T19:43:33.768Z,99.90
2019-05-22T19:46:06.683Z,99.90
2019-05-22T19:48:39.993Z,99.90
2019-05-22T19:51:16.370Z,99.90
2019-05-22T19:53:50.521Z,99.90
2019-05-22T19:56:24.248Z,99.90
2019-05-22T19:58:57.857Z,99.90
2019-05-22T20:01:33.027Z,99.90
2019-05-22T20:04:07.182Z,99.90
2019-05-22T20:06:41.701Z,99.90
2019-05-22T20:09:16.518Z,99.90
2019-05-22T20:11:49.296Z,99.90
2019-05-22T20:14:24.636Z,99.90
2019-05-22T20:16:57.876Z,99.90
2019-05-22T20:19:31.211Z,99.90
2019-05-22T20:22:06.057Z,99.90
2019-05-22T20:24:39.101Z,99.90
2019-05-22T20:27:13.541Z,99.90
2019-05-22T20:29:46.784Z,99.90
2019-05-22T20:32:20.069Z,99.90
2019-05-22T20:34:53.352Z,99.90
2019-05-22T20:37:28.992Z,99.90
2019-05-22T20:40:03.645Z,99.90
2019-05-22T20:42:37.348Z,99.90
2019-05-22T20:45:11.181Z,99.90
2019-05-22T20:47:45.907Z,99.90
2019-05-22T20:50:21.668Z,99.90
2019-05-22T20:52:54.586Z,99.90
2019-05-22T20:55:27.271Z,99.90
2019-05-22T20:58:00.728Z,99.90
2019-05-22T21:00:34.517Z,99.90
2019-05-22T21:03:10.882Z,99.90
2019-05-22T21:05:44.278Z,99.90
2019-05-22T21:08:21.318Z,99.90
2019-05-22T21:10:55.760Z,99.90
2019-05-22T21:13:29.591Z,99.90
2019-05-22T21:16:03.012Z,99.90
2019-05-22T21:18:43.039Z,99.90
2019-05-22T21:21:17.918Z,99.90
2019-05-22T21:23:50.779Z,99.90
2019-05-22T21:26:23.619Z,99.90
2019-05-22T21:28:58.254Z,99.90
2019-05-22T21:31:32.787Z,99.90
2019-05-22T21:34:06.526Z,99.90
2019-05-22T21:36:39.397Z,99.90
2019-05-22T21:39:13.145Z,99.90
2019-05-22T21:41:47.199Z,99.90
2019-05-22T21:44:19.904Z,99.90
2019-05-22T21:46:55.021Z,99.90
2019-05-22T21:49:29.657Z,99.90
2019-05-22T21:52:04.608Z,99.90
2019-05-22T21:54:37.258Z,99.90
2019-05-22T21:57:11.061Z,99.90
2019-05-22T21:59:43.989Z,99.90
2019-05-22T22:02:24.675Z,99.90
2019-05-22T22:04:59.180Z,99.90
2019-05-22T22:07:32.352Z,99.90
2019-05-22T22:10:05.888Z,99.90
2019-05-22T22:12:38.969Z,99.90
2019-05-22T22:15:12.457Z,99.90
2019-05-22T22:17:46.873Z,99.90
2019-05-22T22:20:22.459Z,99.90
2019-05-22T22:22:55.319Z,99.90
2019-05-22T22:25:28.934Z,99.90
2019-05-22T22:28:02.725Z,99.90
2019-05-22T22:30:43.685Z,99.90
2019-05-22T22:33:20.823Z,99.90
2019-05-22T22:35:54.459Z,99.90
2019-05-22T22:38:28.242Z,99.90
2019-05-22T22:41:03.175Z,99.90
2019-05-22T22:43:39.069Z,99.90
2019-05-22T22:46:26.063Z,99.90
2019-05-22T22:49:02.474Z,99.90
2019-05-22T22:51:35.851Z,99.90
2019-05-22T22:54:09.318Z,99.90
2019-05-22T22:56:43.038Z,99.90
2019-05-22T22:59:16.826Z,99.90
2019-05-22T23:01:52.904Z,99.90
2019-05-22T23:04:28.726Z,99.90
2019-05-22T23:07:07.324Z,99.90
2019-05-22T23:09:42.355Z,99.90
2019-05-22T23:12:15.392Z,99.90
2019-05-22T23:14:53.280Z,99.90
2019-05-22T23:17:27.444Z,99.90
2019-05-22T23:19:59.416Z,99.90
2019-05-22T23:22:31.457Z,99.90
2019-05-22T23:25:05.884Z,99.90
2019-05-22T23:27:39.158Z,99.90
2019-05-22T23:30:13.109Z,99.90
2019-05-22T23:32:46.455Z,99.90
2019-05-22T23:35:22.023Z,99.90
2019-05-22T23:37:56.378Z,99.90
2019-05-22T23:40:34.830Z,99.90
2019-05-22T23:43:07.848Z,99.90
2019-05-22T23:45:42.584Z,99.90
2019-05-22T23:48:16.543Z,99.90
2019-05-22T23:50:49.453Z,99.90
2019-05-22T23:53:23.345Z,99.90
2019-05-22T23:55:56.333Z,99.90
2019-05-22T23:58:30.150Z,99.90
